• Join FlightAware (Why Join?)
  • Login
  • US Flag 
09:50PM EDT


 

Airport Tracker/Info


-or-


 

Live Flight TrackerFlight Track Log ✈ UAL4543 ✈ 28-Apr-2013 ✈ KEWR - KDSM

Flight Track Log - Related Links

Times and Time Zones

All times are in EDT time to prevent confusion due to time zone crossing. See the UAL4543 flight status page for this flight to view local times or setup timezone preferences in your user account.

Time Position Orientation Groundspeed Altitude Reporting Facility
EDT Latitude Longitude Course Direction KTS MPH feet Rate Location/Type
08:59PM 40.7757 -74.5495 284° West  Level FlightAware Approximate
09:00PM 40.7999 -74.6826 284° West  Level FlightAware Approximate
09:01PM 40.8301 -74.8136 287° West  Level FlightAware Approximate
09:02PM 40.8667 -74.9400 270° West  Level FlightAware Approximate
09:03PM 40.8862 -75.0724 303° West  Level FlightAware Approximate
09:04PM 40.9000 -75.1884 270° West  Level FlightAware Approximate
09:05PM 40.8709 -75.3124 255° West  Level FlightAware Approximate
09:06PM 40.8427 -75.4365 255° West  Level FlightAware Approximate
09:07PM 40.8186 -75.5691 254° West  Level FlightAware Approximate
09:08PM 40.7903 -75.7008 254° West  Level FlightAware Approximate
09:09PM 40.7589 -75.8312 252° West  Level FlightAware Approximate
09:10PM 40.7244 -75.9601 246° West  Level FlightAware Approximate
09:11PM 40.6945 -76.0889 248° West  Level FlightAware Approximate
09:12PM 40.6555 -76.2155 248° West  Level FlightAware Approximate
09:13PM 40.6691 -76.3480 282° West  Level FlightAware Approximate
09:14PM 40.6914 -76.4815 282° West  Level FlightAware Approximate
09:15PM 40.7136 -76.6150 282° West  Level FlightAware Approximate
09:16PM 40.7320 -76.7495 280° West  Level FlightAware Approximate
09:17PM 40.7495 -76.8843 280° West  Level FlightAware Approximate
09:18PM 40.7671 -77.0191 283° West  Level FlightAware Approximate
09:19PM 40.7907 -77.1524 283° West  Level FlightAware Approximate
09:20PM 40.8142 -77.2858 283° West  Level FlightAware Approximate
09:21PM 40.8318 -77.4207 279° West  Level FlightAware Approximate
09:22PM 40.8497 -77.5556 280° West  Level FlightAware Approximate
09:23PM 40.8675 -77.6906 278° West  Level FlightAware Approximate
09:24PM 40.8826 -77.8262 278° West  Level FlightAware Approximate
09:25PM 40.8976 -77.9618 278° West  Level FlightAware Approximate
09:26PM 40.9208 -78.0953 281° West  Level FlightAware Approximate
09:27PM 40.9402 -78.2301 281° West  Level FlightAware Approximate
09:28PM 40.9593 -78.3649 281° West  Level FlightAware Approximate
09:29PM 40.9761 -78.5003 279° West  Level FlightAware Approximate
09:30PM 40.9914 -78.6361 278° West  Level FlightAware Approximate
09:31PM 41.0065 -78.7719 278° West  Level FlightAware Approximate
09:32PM 41.0214 -78.9079 278° West  Level FlightAware Approximate
09:33PM 41.0361 -79.0438 278° West  Level FlightAware Approximate
09:34PM 41.0507 -79.1798 278° West  Level FlightAware Approximate
09:35PM 41.0652 -79.3159 278° West  Level FlightAware Approximate
09:36PM 41.0794 -79.4521 278° West  Level FlightAware Approximate
09:37PM 41.0936 -79.5883 278° West  Level FlightAware Approximate
09:38PM 41.1075 -79.7246 278° West  Level FlightAware Approximate
09:39PM 41.1213 -79.8609 278° West  Level FlightAware Approximate
09:40PM 41.1349 -79.9973 278° West  Level FlightAware Approximate
09:41PM 41.1484 -80.1337 278° West  Level FlightAware Approximate
09:42PM 41.1660 -80.2693 280° West  Level FlightAware Approximate
09:43PM 41.1839 -80.4050 278° West  Level FlightAware Approximate
09:44PM 41.1982 -80.5414 278° West  Level FlightAware Approximate
09:45PM 41.2123 -80.6778 278° West  Level FlightAware Approximate
09:46PM 41.2263 -80.8143 278° West  Level FlightAware Approximate
09:47PM 41.2401 -80.9509 278° West  Level FlightAware Approximate
09:48PM 41.2537 -81.0875 278° West  Level FlightAware Approximate
09:49PM 41.2671 -81.2242 277° West  Level FlightAware Approximate
09:50PM 41.2804 -81.3610 277° West  Level FlightAware Approximate
09:51PM 41.2935 -81.4978 277° West  Level FlightAware Approximate
09:52PM 41.3060 -81.6347 277° West  Level FlightAware Approximate
09:53PM 41.3179 -81.7718 277° West  Level FlightAware Approximate
09:54PM 41.3297 -81.9089 277° West  Level FlightAware Approximate
09:55PM 41.3413 -82.0460 276° West  Level FlightAware Approximate
09:56PM 41.3525 -82.1832 276° West  Level FlightAware Approximate
09:57PM 41.3629 -82.3206 276° West  Level FlightAware Approximate
09:58PM 41.3730 -82.4580 276° West  Level FlightAware Approximate
09:59PM 41.3830 -82.5955 276° West  Level FlightAware Approximate
10:00PM 41.3834 -82.7336 274° West  Level FlightAware Approximate
10:01PM 41.3913 -82.8713 274° West  Level FlightAware Approximate
10:02PM 41.3992 -83.0091 274° West  Level FlightAware Approximate
10:03PM 41.4068 -83.1468 274° West  Level FlightAware Approximate
10:04PM 41.4143 -83.2847 274° West  Level FlightAware Approximate
10:05PM 41.4216 -83.4225 274° West  Level FlightAware Approximate
10:06PM 41.4288 -83.5604 274° West  Level FlightAware Approximate
10:07PM 41.4350 -83.6983 273° West  Level FlightAware Approximate
10:08PM 41.4398 -83.8364 273° West  Level FlightAware Approximate
10:09PM 41.4444 -83.9745 273° West  Level FlightAware Approximate
10:10PM 41.4488 -84.1127 272° West  Level FlightAware Approximate
10:11PM 41.4536 -84.2508 273° West  Level FlightAware Approximate
10:12PM 41.4585 -84.3889 273° West  Level FlightAware Approximate
10:13PM 41.4632 -84.5270 273° West  Level FlightAware Approximate
10:14PM 41.4719 -84.6645 283° West  Level FlightAware Approximate
10:15PM 41.4855 -84.8010 272° West  Level FlightAware Approximate
10:16PM 41.4897 -84.9393 272° West  Level FlightAware Approximate
10:17PM 41.4937 -85.0775 272° West  Level FlightAware Approximate
10:18PM 41.4975 -85.2158 272° West  Level FlightAware Approximate
10:19PM 41.5012 -85.3541 272° West  Level FlightAware Approximate
10:20PM 41.5048 -85.4923 272° West  Level FlightAware Approximate
10:21PM 41.5081 -85.6307 272° West  Level FlightAware Approximate
10:22PM 41.5113 -85.7690 272° West  Level FlightAware Approximate
10:23PM 41.5144 -85.9073 272° West  Level FlightAware Approximate
10:24PM 41.5167 -86.0457 270° West  Level FlightAware Approximate
10:25PM 41.5167 -86.1841 270° West  Level FlightAware Approximate
10:26PM 41.5192 -86.3224 272° West  Level FlightAware Approximate
10:27PM 41.5224 -86.4608 272° West  Level FlightAware Approximate
10:28PM 41.5255 -86.5991 272° West  Level FlightAware Approximate
10:29PM 41.5283 -86.7375 272° West  Level FlightAware Approximate
10:30PM 41.5311 -86.8759 272° West  Level FlightAware Approximate
10:31PM 41.5333 -87.0143 270° West  Level FlightAware Approximate
10:32PM 41.5334 -87.1527 270° West  Level FlightAware Approximate
10:33PM 41.5337 -87.2911 270° West  Level FlightAware Approximate
10:34PM 41.5342 -87.4296 270° West  Level FlightAware Approximate
10:35PM 41.5345 -87.5680 270° West  Level FlightAware Approximate
10:36PM 41.5347 -87.7065 270° West  Level FlightAware Approximate
10:37PM 41.5346 -87.8449 270° West  Level FlightAware Approximate
10:38PM 41.5345 -87.9833 270° West  Level FlightAware Approximate
10:39PM 41.5341 -88.1218 270° West  Level FlightAware Approximate
10:40PM 41.5336 -88.2602 270° West  Level FlightAware Approximate
10:41PM 41.5335 -88.3987 270° West  Level FlightAware Approximate
10:42PM 41.5337 -88.5371 270° West  Level FlightAware Approximate
10:43PM 41.5337 -88.6755 270° West  Level FlightAware Approximate
10:44PM 41.5335 -88.8140 270° West  Level FlightAware Approximate
10:45PM 41.5334 -88.9524 270° West  Level FlightAware Approximate
10:46PM 41.5335 -89.0908 270° West  Level FlightAware Approximate
10:47PM 41.5335 -89.2293 270° West  Level FlightAware Approximate
10:48PM 41.5335 -89.3677 270° West  Level FlightAware Approximate
10:49PM 41.5340 -89.5062 270° West  Level FlightAware Approximate
10:50PM 41.5343 -89.6446 270° West  Level FlightAware Approximate
10:51PM 41.5345 -89.7830 270° West  Level FlightAware Approximate
10:52PM 41.5345 -89.9215 270° West  Level FlightAware Approximate
10:53PM 41.5343 -90.0599 270° West  Level FlightAware Approximate
10:54PM 41.5340 -90.1984 270° West  Level FlightAware Approximate
10:55PM 41.5335 -90.3368 270° West  Level FlightAware Approximate
10:56PM 41.5333 -90.4752 270° West  Level FlightAware Approximate
10:57PM 41.5334 -90.6137 270° West  Level FlightAware Approximate
10:58PM 41.5332 -90.7521 265° West  Level FlightAware Approximate
10:59PM 41.5247 -90.8901 265° West  Level FlightAware Approximate
11:00PM 41.5167 -91.0280 270° West  Level FlightAware Approximate
11:01PM 41.5167 -91.1664 270° West  Level FlightAware Approximate
11:02PM 41.5167 -91.3048 270° West  Level FlightAware Approximate
11:03PM 41.5167 -91.4432 270° West  Level FlightAware Approximate
11:04PM 41.5167 -91.5816 270° West  Level FlightAware Approximate
11:05PM 41.5167 -91.7200 270° West  Level FlightAware Approximate
11:06PM 41.5167 -91.8584 270° West  Level FlightAware Approximate
11:07PM 41.5167 -91.9968 270° West  Level FlightAware Approximate
11:08PM 41.5170 -92.1352 270° West  Level FlightAware Approximate
11:09PM 41.5171 -92.2736 270° West  Level FlightAware Approximate
11:10PM 41.5171 -92.4120 270° West  Level FlightAware Approximate
11:11PM 41.5168 -92.5504 270° West  Level FlightAware Approximate
11:12PM 41.5167 -92.6888 270° West  Level FlightAware Approximate
11:13PM 41.5167 -92.8272 270° West  Level FlightAware Approximate
11:14PM 41.5225 -92.9653 275° West  Level FlightAware Approximate
11:15PM 41.5306 -93.1033 275° West  Level FlightAware Approximate
11:16PM 41.5334 -93.2416 270° West  Level FlightAware Approximate
11:17PM 41.5333 -93.3801 270° West  Level FlightAware Approximate
11:18PM 41.5334 -93.5185 270° West  Level FlightAware Approximate
11:19PM 41.5333 -93.6500 270° West  Level FlightAware Approximate
11:20PM 41.5340 -93.6631 270° West  Level Estimated
11:21PM 41.5340 -93.6631 270° West  Level Estimated
11:22PM 41.5340 -93.6631 270° West  Level Estimated
11:23PM 41.5340 -93.6631 270° West  Level Estimated
11:24PM 41.5340 -93.6631 270° West  Level Estimated
11:25PM 41.5340 -93.6631 270° West  Level Estimated